createdAt,value
2022-10-07T00:12:06.817Z,13.21
2022-10-07T00:40:26.996Z,13.04
2022-10-07T01:08:42.138Z,12.83
2022-10-07T01:37:03.599Z,12.67
2022-10-07T02:05:24.976Z,12.78
2022-10-07T02:33:43.812Z,12.75
2022-10-07T03:02:05.511Z,12.81
2022-10-07T03:30:27.460Z,12.68
2022-10-07T03:58:43.510Z,12.68
2022-10-07T04:27:52.242Z,12.84
2022-10-07T04:56:08.543Z,12.67
2022-10-07T05:25:14.412Z,12.81
2022-10-07T05:54:11.037Z,12.99
2022-10-07T06:22:58.639Z,13.43
2022-10-07T06:51:58.049Z,15.52
2022-10-07T07:21:09.308Z,17.71
2022-10-07T07:50:09.533Z,18.86
2022-10-07T08:19:04.638Z,19.41
2022-10-07T08:48:05.875Z,20
2022-10-07T09:16:09.527Z,20.16
2022-10-07T09:45:36.216Z,21.67
2022-10-07T10:14:57.514Z,22.61
2022-10-07T10:44:00.047Z,21.05
2022-10-07T11:12:39.443Z,23.46
2022-10-07T11:41:21.878Z,22.73
2022-10-07T12:10:21.057Z,21.5
2022-10-07T12:39:20.333Z,21
2022-10-07T13:08:11.073Z,21.52
2022-10-07T13:36:59.173Z,21.34
2022-10-07T14:06:06.400Z,21.88
2022-10-07T14:34:52.790Z,21.92
2022-10-07T15:03:52.480Z,21.78
2022-10-07T15:32:41.690Z,21.53
2022-10-07T16:01:28.943Z,20.82
2022-10-07T16:30:15.976Z,19.69
2022-10-07T16:59:01.588Z,19.07
2022-10-07T17:27:12.632Z,18.39
2022-10-07T17:55:30.828Z,17.41
2022-10-07T18:24:31.218Z,17.67
2022-10-07T18:53:25.071Z,17
2022-10-07T19:22:18.325Z,16.94
2022-10-07T19:50:34.474Z,16.63
2022-10-07T20:18:56.756Z,16.09
2022-10-07T20:47:18.193Z,16.31
2022-10-07T21:15:26.248Z,15.9
2022-10-07T21:43:44.766Z,15.9
2022-10-07T22:12:03.816Z,15.71
2022-10-07T22:41:02.798Z,15.48
2022-10-07T23:09:56.089Z,15.58
2022-10-07T23:38:45.237Z,15.03
